Большая Халань

Карта отелей и гостиниц, располагающихся рядом с аэропортом Большая Халань :



Большая Халань Белгородская область 50° 54' 58.86" N, 37° 24' 24.5412" E

Большая Халань Белгородская область 50° 54' 58.86" N, 37° 24' 24.5412" E
Код аэродрома ИКАО: 
ZEF8
Код аэродрома RU: 
ЗЕФ8
Координаты: 
N50.91635° E037.40682°
Превышение над уровнем моря : 
217
Основная полоса: 
03/21
Курс магнитный: 
033,8/213,8
Длина основной ВПП: 
415
Ширина основной ВПП: 
18
Покрытие основной ВПП: 
Твёрдое (асфальт)
Тип: 
Аэродром
Освещение ВПП: 
Нет
Класс аэродрома: 
Статус: 
Недействующий
Принадлежность: 
ГА
Сайт: 
E-mail аэродрома: 
Страна: 
Россия
Регион: 
Белгородская область
Город: 
Дополнительная информация: 
Бывшая площадка АХР.

Найти трансфер

С помощью этой формы Вы можете найти трансфер из аэропорта Большая Халань в город, аэропорт или вокзал:

Карта места

Javascript is required to view this map.

Погода в аэропортах:

Авиационная погода в Савонлинна

Регион: 
Погода METAR: 
EFSA 041950Z AUTO 04012KT 3600 RA OVC006 11/11 Q1001 REDZ
Время наблюдения: 
2020-06-04T19:50:00Z
Температура C: 
11.0
Точка росы: 
11.0
Направление ветра: 
40
Скорость ветра: 
12
Метеорологическая видимость: 
2.24
Явления погоды: 
RA
Условия полета: 
IFR

Авиационная погода в Йоэнсуу

Регион: 
Погода METAR: 
EFJO 041950Z AUTO 06009KT 020V090 9999 -SHRA OVC012 12/10 Q1002
Время наблюдения: 
2020-06-04T19:50:00Z
Температура C: 
12.0
Точка росы: 
10.0
Направление ветра: 
60
Скорость ветра: 
9
Метеорологическая видимость: 
6.21
Явления погоды: 
-SHRA
Условия полета: 
MVFR

Авиационная погода в Нижнем Новгороде

Регион: 
Погода METAR: 
UWGG 042000Z 20002MPS 1900 0800NE R18L/1700U FG FEW033 13/13 Q1009 R18L/190060 TEMPO 0300 FG VV003
Время наблюдения: 
2020-06-04T20:00:00Z
Температура C: 
13.0
Точка росы: 
13.0
Направление ветра: 
200
Скорость ветра: 
4
Метеорологическая видимость: 
1.18
Явления погоды: 
FG
Условия полета: 
IFR

Авиационная погода в Витебске

Регион: 
Погода METAR: 
UMII 041400Z 29003MPS 7000 -SHRA BKN017CB 15/14 Q1002 TEMPO 2000 TSRA BKN005
Время наблюдения: 
2020-06-04T14:00:00Z
Температура C: 
15.0
Точка росы: 
14.0
Направление ветра: 
290
Скорость ветра: 
6
Метеорологическая видимость: 
4.35
Явления погоды: 
-SHRA
Условия полета: 
MVFR